Аэропорт: Элиста. Элиста

ICAO: URWI

METAR:
2022-06-26 11:00:00
URWI 261100Z 06008MPS 030V100 CAVOK 32/08 Q1008 R09/010065 TEMPO 06009G16MPS
METAR:
2022-06-26 07:59:00
TAF URWI 260759Z 2609/2618 07006G14MPS 9999 -SHRA SCT030CB PROB40 TEMPO 2609/2618 -TSRA